sensor_id;sensor_type;location;lat;lon;timestamp;P1;durP1;ratioP1;P2;durP2;ratioP2
51288;SDS011;37372;52.294;5.152;2022-12-19T00:01:11;53.70;;;23.65;;
51288;SDS011;37372;52.294;5.152;2022-12-19T00:03:52;50.88;;;24.67;;
51288;SDS011;37372;52.294;5.152;2022-12-19T00:06:22;49.15;;;23.83;;
51288;SDS011;37372;52.294;5.152;2022-12-19T00:08:49;48.78;;;24.35;;
51288;SDS011;37372;52.294;5.152;2022-12-19T00:11:16;55.97;;;25.73;;
51288;SDS011;37372;52.294;5.152;2022-12-19T00:13:43;53.03;;;25.38;;
51288;SDS011;37372;52.294;5.152;2022-12-19T00:16:10;47.15;;;23.38;;
51288;SDS011;37372;52.294;5.152;2022-12-19T00:18:38;50.88;;;25.08;;
51288;SDS011;37372;52.294;5.152;2022-12-19T00:21:08;53.28;;;24.17;;
51288;SDS011;37372;52.294;5.152;2022-12-19T00:23:35;49.92;;;24.55;;
51288;SDS011;37372;52.294;5.152;2022-12-19T00:26:08;46.53;;;23.50;;
51288;SDS011;37372;52.294;5.152;2022-12-19T00:28:43;43.75;;;22.38;;
51288;SDS011;37372;52.294;5.152;2022-12-19T00:31:13;43.47;;;23.63;;
51288;SDS011;37372;52.294;5.152;2022-12-19T00:33:39;47.15;;;23.45;;
51288;SDS011;37372;52.294;5.152;2022-12-19T00:36:06;48.40;;;23.27;;
51288;SDS011;37372;52.294;5.152;2022-12-19T00:38:35;45.72;;;22.10;;
51288;SDS011;37372;52.294;5.152;2022-12-19T00:41:07;45.53;;;23.25;;
51288;SDS011;37372;52.294;5.152;2022-12-19T00:43:34;45.75;;;23.65;;
51288;SDS011;37372;52.294;5.152;2022-12-19T00:46:08;48.28;;;22.45;;
51288;SDS011;37372;52.294;5.152;2022-12-19T00:48:35;49.03;;;23.20;;
51288;SDS011;37372;52.294;5.152;2022-12-19T00:51:05;46.55;;;21.75;;
51288;SDS011;37372;52.294;5.152;2022-12-19T00:53:32;46.08;;;20.17;;
51288;SDS011;37372;52.294;5.152;2022-12-19T00:56:05;44.53;;;21.88;;
51288;SDS011;37372;52.294;5.152;2022-12-19T00:58:32;39.30;;;22.25;;
51288;SDS011;37372;52.294;5.152;2022-12-19T01:01:03;41.95;;;21.73;;
51288;SDS011;37372;52.294;5.152;2022-12-19T01:03:30;39.40;;;19.75;;
51288;SDS011;37372;52.294;5.152;2022-12-19T01:05:55;42.17;;;22.65;;
51288;SDS011;37372;52.294;5.152;2022-12-19T01:08:21;42.15;;;20.25;;
51288;SDS011;37372;52.294;5.152;2022-12-19T01:10:47;40.17;;;21.08;;
51288;SDS011;37372;52.294;5.152;2022-12-19T01:13:14;40.72;;;22.60;;
51288;SDS011;37372;52.294;5.152;2022-12-19T01:15:40;39.92;;;21.10;;
51288;SDS011;37372;52.294;5.152;2022-12-19T01:18:06;42.00;;;21.48;;
51288;SDS011;37372;52.294;5.152;2022-12-19T01:20:36;43.67;;;21.50;;
51288;SDS011;37372;52.294;5.152;2022-12-19T01:23:02;42.53;;;20.48;;
51288;SDS011;37372;52.294;5.152;2022-12-19T01:25:28;42.97;;;21.45;;
51288;SDS011;37372;52.294;5.152;2022-12-19T01:27:53;40.25;;;20.48;;
51288;SDS011;37372;52.294;5.152;2022-12-19T01:30:19;42.22;;;20.92;;
51288;SDS011;37372;52.294;5.152;2022-12-19T01:32:45;43.40;;;23.52;;
51288;SDS011;37372;52.294;5.152;2022-12-19T01:35:10;45.20;;;23.17;;
51288;SDS011;37372;52.294;5.152;2022-12-19T01:37:35;45.08;;;22.90;;
51288;SDS011;37372;52.294;5.152;2022-12-19T01:40:01;51.35;;;23.05;;
51288;SDS011;37372;52.294;5.152;2022-12-19T01:42:32;47.03;;;22.98;;
51288;SDS011;37372;52.294;5.152;2022-12-19T01:47:42;45.90;;;23.02;;
51288;SDS011;37372;52.294;5.152;2022-12-19T01:50:13;41.53;;;23.83;;
51288;SDS011;37372;52.294;5.152;2022-12-19T01:52:41;47.72;;;24.58;;
51288;SDS011;37372;52.294;5.152;2022-12-19T01:55:07;50.25;;;24.33;;
51288;SDS011;37372;52.294;5.152;2022-12-19T01:57:37;47.17;;;25.17;;
51288;SDS011;37372;52.294;5.152;2022-12-19T02:00:03;53.00;;;24.60;;
51288;SDS011;37372;52.294;5.152;2022-12-19T02:02:37;51.75;;;24.73;;
51288;SDS011;37372;52.294;5.152;2022-12-19T02:05:07;52.80;;;25.10;;
51288;SDS011;37372;52.294;5.152;2022-12-19T02:07:33;55.03;;;24.92;;
51288;SDS011;37372;52.294;5.152;2022-12-19T02:10:01;51.65;;;25.83;;
51288;SDS011;37372;52.294;5.152;2022-12-19T02:12:27;58.20;;;24.98;;
51288;SDS011;37372;52.294;5.152;2022-12-19T02:14:57;54.38;;;25.17;;
51288;SDS011;37372;52.294;5.152;2022-12-19T02:28:18;63.30;;;27.77;;
51288;SDS011;37372;52.294;5.152;2022-12-19T02:31:09;47.22;;;24.40;;
51288;SDS011;37372;52.294;5.152;2022-12-19T02:38:59;63.15;;;27.25;;
51288;SDS011;37372;52.294;5.152;2022-12-19T02:41:44;55.30;;;28.38;;
51288;SDS011;37372;52.294;5.152;2022-12-19T02:44:17;54.97;;;25.33;;
51288;SDS011;37372;52.294;5.152;2022-12-19T02:46:48;51.00;;;23.90;;
51288;SDS011;37372;52.294;5.152;2022-12-19T02:49:15;58.20;;;24.42;;
51288;SDS011;37372;52.294;5.152;2022-12-19T02:51:40;50.78;;;24.13;;
51288;SDS011;37372;52.294;5.152;2022-12-19T02:54:06;49.45;;;23.05;;
51288;SDS011;37372;52.294;5.152;2022-12-19T03:04:43;52.67;;;22.55;;
51288;SDS011;37372;52.294;5.152;2022-12-19T03:10:04;47.72;;;22.02;;
51288;SDS011;37372;52.294;5.152;2022-12-19T03:12:38;47.95;;;21.58;;
51288;SDS011;37372;52.294;5.152;2022-12-19T03:15:12;43.33;;;20.70;;
51288;SDS011;37372;52.294;5.152;2022-12-19T03:17:39;42.80;;;21.20;;
51288;SDS011;37372;52.294;5.152;2022-12-19T03:20:06;47.25;;;21.77;;
51288;SDS011;37372;52.294;5.152;2022-12-19T03:22:38;46.72;;;20.45;;
51288;SDS011;37372;52.294;5.152;2022-12-19T03:25:03;39.65;;;19.98;;
51288;SDS011;37372;52.294;5.152;2022-12-19T03:27:29;48.45;;;21.27;;
51288;SDS011;37372;52.294;5.152;2022-12-19T03:30:00;45.78;;;21.70;;
51288;SDS011;37372;52.294;5.152;2022-12-19T03:32:29;43.35;;;20.15;;
51288;SDS011;37372;52.294;5.152;2022-12-19T03:35:00;48.40;;;20.45;;
51288;SDS011;37372;52.294;5.152;2022-12-19T03:37:32;46.92;;;21.23;;
51288;SDS011;37372;52.294;5.152;2022-12-19T03:40:04;39.88;;;20.50;;
51288;SDS011;37372;52.294;5.152;2022-12-19T03:42:38;43.28;;;20.52;;
51288;SDS011;37372;52.294;5.152;2022-12-19T03:48:22;43.53;;;20.67;;
51288;SDS011;37372;52.294;5.152;2022-12-19T03:53:57;42.30;;;19.35;;
51288;SDS011;37372;52.294;5.152;2022-12-19T03:56:40;41.17;;;18.52;;
51288;SDS011;37372;52.294;5.152;2022-12-19T03:59:08;37.33;;;17.23;;
51288;SDS011;37372;52.294;5.152;2022-12-19T04:01:39;35.95;;;16.23;;
51288;SDS011;37372;52.294;5.152;2022-12-19T04:04:05;34.58;;;17.50;;
51288;SDS011;37372;52.294;5.152;2022-12-19T04:06:38;33.97;;;16.00;;
51288;SDS011;37372;52.294;5.152;2022-12-19T04:09:06;31.02;;;16.40;;
51288;SDS011;37372;52.294;5.152;2022-12-19T04:11:33;31.73;;;16.00;;
51288;SDS011;37372;52.294;5.152;2022-12-19T04:14:09;30.92;;;15.23;;
51288;SDS011;37372;52.294;5.152;2022-12-19T04:16:46;30.65;;;14.77;;
51288;SDS011;37372;52.294;5.152;2022-12-19T04:19:30;28.17;;;13.88;;
51288;SDS011;37372;52.294;5.152;2022-12-19T04:27:44;29.17;;;12.63;;
51288;SDS011;37372;52.294;5.152;2022-12-19T04:30:26;29.63;;;13.80;;
51288;SDS011;37372;52.294;5.152;2022-12-19T04:32:51;26.88;;;12.57;;
51288;SDS011;37372;52.294;5.152;2022-12-19T04:35:17;21.88;;;12.45;;
51288;SDS011;37372;52.294;5.152;2022-12-19T04:37:43;23.10;;;12.43;;
51288;SDS011;37372;52.294;5.152;2022-12-19T04:40:08;20.05;;;11.45;;
51288;SDS011;37372;52.294;5.152;2022-12-19T04:42:35;28.45;;;13.73;;
51288;SDS011;37372;52.294;5.152;2022-12-19T04:45:01;24.08;;;13.45;;
51288;SDS011;37372;52.294;5.152;2022-12-19T04:47:27;28.08;;;14.63;;
51288;SDS011;37372;52.294;5.152;2022-12-19T04:49:52;24.38;;;13.07;;
51288;SDS011;37372;52.294;5.152;2022-12-19T04:52:17;26.85;;;15.32;;
51288;SDS011;37372;52.294;5.152;2022-12-19T04:54:43;30.20;;;14.75;;
51288;SDS011;37372;52.294;5.152;2022-12-19T04:57:08;25.10;;;14.65;;
51288;SDS011;37372;52.294;5.152;2022-12-19T04:59:33;27.75;;;15.02;;
51288;SDS011;37372;52.294;5.152;2022-12-19T05:01:59;28.83;;;13.70;;
51288;SDS011;37372;52.294;5.152;2022-12-19T05:04:24;28.83;;;15.05;;
51288;SDS011;37372;52.294;5.152;2022-12-19T05:06:49;28.67;;;14.77;;
51288;SDS011;37372;52.294;5.152;2022-12-19T05:09:15;26.63;;;13.45;;
51288;SDS011;37372;52.294;5.152;2022-12-19T05:11:40;24.55;;;14.10;;
51288;SDS011;37372;52.294;5.152;2022-12-19T05:14:06;23.85;;;13.82;;
51288;SDS011;37372;52.294;5.152;2022-12-19T05:16:31;22.08;;;12.70;;
51288;SDS011;37372;52.294;5.152;2022-12-19T05:18:58;20.45;;;13.20;;
51288;SDS011;37372;52.294;5.152;2022-12-19T05:21:23;21.65;;;12.20;;
51288;SDS011;37372;52.294;5.152;2022-12-19T05:23:49;21.55;;;12.85;;
51288;SDS011;37372;52.294;5.152;2022-12-19T05:26:15;20.85;;;11.70;;
51288;SDS011;37372;52.294;5.152;2022-12-19T05:28:41;20.10;;;12.73;;
51288;SDS011;37372;52.294;5.152;2022-12-19T05:31:07;24.23;;;13.18;;
51288;SDS011;37372;52.294;5.152;2022-12-19T05:33:37;19.17;;;10.98;;
51288;SDS011;37372;52.294;5.152;2022-12-19T05:36:06;21.70;;;11.93;;
51288;SDS011;37372;52.294;5.152;2022-12-19T05:38:32;20.85;;;12.63;;
51288;SDS011;37372;52.294;5.152;2022-12-19T05:40:58;21.33;;;11.43;;
51288;SDS011;37372;52.294;5.152;2022-12-19T05:43:24;21.63;;;11.88;;
51288;SDS011;37372;52.294;5.152;2022-12-19T05:45:50;20.10;;;12.25;;
51288;SDS011;37372;52.294;5.152;2022-12-19T05:48:15;18.98;;;11.95;;
51288;SDS011;37372;52.294;5.152;2022-12-19T05:50:45;20.45;;;12.45;;
51288;SDS011;37372;52.294;5.152;2022-12-19T05:53:11;22.20;;;11.80;;
51288;SDS011;37372;52.294;5.152;2022-12-19T05:55:36;21.80;;;12.75;;
51288;SDS011;37372;52.294;5.152;2022-12-19T05:58:01;18.25;;;11.77;;
51288;SDS011;37372;52.294;5.152;2022-12-19T06:00:27;19.67;;;12.50;;
51288;SDS011;37372;52.294;5.152;2022-12-19T06:02:53;23.25;;;13.32;;
51288;SDS011;37372;52.294;5.152;2022-12-19T06:05:18;22.27;;;12.85;;
51288;SDS011;37372;52.294;5.152;2022-12-19T06:07:44;24.75;;;12.93;;
51288;SDS011;37372;52.294;5.152;2022-12-19T06:10:10;21.50;;;14.38;;
51288;SDS011;37372;52.294;5.152;2022-12-19T06:12:35;26.88;;;13.85;;
51288;SDS011;37372;52.294;5.152;2022-12-19T06:15:01;21.98;;;14.70;;
51288;SDS011;37372;52.294;5.152;2022-12-19T06:17:27;22.45;;;14.07;;
51288;SDS011;37372;52.294;5.152;2022-12-19T06:19:52;21.67;;;13.70;;
51288;SDS011;37372;52.294;5.152;2022-12-19T06:22:17;22.35;;;13.55;;
51288;SDS011;37372;52.294;5.152;2022-12-19T06:24:43;21.02;;;13.75;;
51288;SDS011;37372;52.294;5.152;2022-12-19T06:27:08;23.35;;;14.55;;
51288;SDS011;37372;52.294;5.152;2022-12-19T06:29:34;23.15;;;13.45;;
51288;SDS011;37372;52.294;5.152;2022-12-19T06:31:59;26.50;;;13.38;;
51288;SDS011;37372;52.294;5.152;2022-12-19T06:34:25;25.25;;;14.27;;
51288;SDS011;37372;52.294;5.152;2022-12-19T06:36:53;23.73;;;13.57;;
51288;SDS011;37372;52.294;5.152;2022-12-19T06:39:18;19.98;;;14.25;;
51288;SDS011;37372;52.294;5.152;2022-12-19T06:41:44;24.40;;;15.68;;
51288;SDS011;37372;52.294;5.152;2022-12-19T06:44:27;23.85;;;14.32;;
51288;SDS011;37372;52.294;5.152;2022-12-19T06:46:55;19.90;;;12.90;;
51288;SDS011;37372;52.294;5.152;2022-12-19T06:49:21;25.50;;;13.90;;
51288;SDS011;37372;52.294;5.152;2022-12-19T06:51:46;24.98;;;14.43;;
51288;SDS011;37372;52.294;5.152;2022-12-19T06:54:12;27.67;;;15.35;;
51288;SDS011;37372;52.294;5.152;2022-12-19T06:56:38;22.20;;;14.68;;
51288;SDS011;37372;52.294;5.152;2022-12-19T06:59:06;24.60;;;14.43;;
51288;SDS011;37372;52.294;5.152;2022-12-19T07:04:09;22.45;;;15.13;;
51288;SDS011;37372;52.294;5.152;2022-12-19T07:06:38;24.58;;;15.55;;
51288;SDS011;37372;52.294;5.152;2022-12-19T07:09:04;22.35;;;14.88;;
51288;SDS011;37372;52.294;5.152;2022-12-19T07:11:30;23.17;;;15.43;;
51288;SDS011;37372;52.294;5.152;2022-12-19T07:13:55;26.35;;;16.05;;
51288;SDS011;37372;52.294;5.152;2022-12-19T07:16:22;27.55;;;16.13;;
51288;SDS011;37372;52.294;5.152;2022-12-19T07:18:49;26.80;;;17.40;;
51288;SDS011;37372;52.294;5.152;2022-12-19T07:21:14;26.48;;;17.38;;
51288;SDS011;37372;52.294;5.152;2022-12-19T07:23:40;30.23;;;17.70;;
51288;SDS011;37372;52.294;5.152;2022-12-19T07:26:06;29.50;;;18.45;;
51288;SDS011;37372;52.294;5.152;2022-12-19T07:28:32;29.85;;;17.80;;
51288;SDS011;37372;52.294;5.152;2022-12-19T07:30:59;28.77;;;18.60;;
51288;SDS011;37372;52.294;5.152;2022-12-19T07:33:24;28.08;;;18.90;;
51288;SDS011;37372;52.294;5.152;2022-12-19T07:35:50;30.83;;;18.30;;
51288;SDS011;37372;52.294;5.152;2022-12-19T07:38:16;32.92;;;19.77;;
51288;SDS011;37372;52.294;5.152;2022-12-19T07:40:41;30.10;;;18.58;;
51288;SDS011;37372;52.294;5.152;2022-12-19T07:43:09;32.33;;;20.08;;
51288;SDS011;37372;52.294;5.152;2022-12-19T07:45:35;28.95;;;17.88;;
51288;SDS011;37372;52.294;5.152;2022-12-19T07:48:02;41.28;;;19.88;;
51288;SDS011;37372;52.294;5.152;2022-12-19T07:50:29;32.95;;;19.58;;
51288;SDS011;37372;52.294;5.152;2022-12-19T07:52:55;30.15;;;19.25;;
51288;SDS011;37372;52.294;5.152;2022-12-19T07:55:22;28.15;;;18.00;;
51288;SDS011;37372;52.294;5.152;2022-12-19T07:57:47;31.05;;;18.42;;
51288;SDS011;37372;52.294;5.152;2022-12-19T08:00:12;26.08;;;15.88;;
51288;SDS011;37372;52.294;5.152;2022-12-19T08:02:38;32.53;;;18.48;;
51288;SDS011;37372;52.294;5.152;2022-12-19T08:05:03;25.65;;;15.80;;
51288;SDS011;37372;52.294;5.152;2022-12-19T08:07:30;25.92;;;15.05;;
51288;SDS011;37372;52.294;5.152;2022-12-19T08:09:55;25.92;;;14.55;;
51288;SDS011;37372;52.294;5.152;2022-12-19T08:12:21;26.55;;;14.43;;
51288;SDS011;37372;52.294;5.152;2022-12-19T08:14:46;25.98;;;14.55;;
51288;SDS011;37372;52.294;5.152;2022-12-19T08:17:12;27.27;;;14.63;;
51288;SDS011;37372;52.294;5.152;2022-12-19T08:19:38;22.60;;;13.93;;
51288;SDS011;37372;52.294;5.152;2022-12-19T08:22:03;23.63;;;14.38;;
51288;SDS011;37372;52.294;5.152;2022-12-19T08:24:29;25.17;;;13.57;;
51288;SDS011;37372;52.294;5.152;2022-12-19T08:26:55;22.08;;;12.32;;
51288;SDS011;37372;52.294;5.152;2022-12-19T08:29:20;24.58;;;13.18;;
51288;SDS011;37372;52.294;5.152;2022-12-19T08:31:46;23.23;;;12.55;;
51288;SDS011;37372;52.294;5.152;2022-12-19T08:34:12;21.83;;;13.50;;
51288;SDS011;37372;52.294;5.152;2022-12-19T08:36:37;20.73;;;12.40;;
51288;SDS011;37372;52.294;5.152;2022-12-19T08:39:03;24.85;;;12.93;;
51288;SDS011;37372;52.294;5.152;2022-12-19T08:41:29;21.45;;;11.98;;
51288;SDS011;37372;52.294;5.152;2022-12-19T08:43:54;21.55;;;12.18;;
51288;SDS011;37372;52.294;5.152;2022-12-19T08:46:20;24.45;;;13.07;;
51288;SDS011;37372;52.294;5.152;2022-12-19T08:48:46;21.70;;;12.85;;
51288;SDS011;37372;52.294;5.152;2022-12-19T08:51:12;25.08;;;13.38;;
51288;SDS011;37372;52.294;5.152;2022-12-19T08:53:39;29.73;;;13.93;;
51288;SDS011;37372;52.294;5.152;2022-12-19T08:56:07;24.08;;;13.35;;
51288;SDS011;37372;52.294;5.152;2022-12-19T08:58:36;21.42;;;13.95;;
51288;SDS011;37372;52.294;5.152;2022-12-19T09:01:02;22.95;;;13.23;;
51288;SDS011;37372;52.294;5.152;2022-12-19T09:03:30;21.85;;;13.07;;
51288;SDS011;37372;52.294;5.152;2022-12-19T09:05:59;17.55;;;11.65;;
51288;SDS011;37372;52.294;5.152;2022-12-19T09:08:28;21.92;;;12.43;;
51288;SDS011;37372;52.294;5.152;2022-12-19T09:11:00;31.00;;;14.25;;
51288;SDS011;37372;52.294;5.152;2022-12-19T09:13:27;20.63;;;12.77;;
51288;SDS011;37372;52.294;5.152;2022-12-19T09:18:36;28.15;;;12.07;;
51288;SDS011;37372;52.294;5.152;2022-12-19T09:21:03;18.13;;;11.85;;
51288;SDS011;37372;52.294;5.152;2022-12-19T09:23:29;24.20;;;12.48;;
51288;SDS011;37372;52.294;5.152;2022-12-19T09:26:02;19.55;;;11.63;;
51288;SDS011;37372;52.294;5.152;2022-12-19T09:28:30;17.13;;;11.23;;
51288;SDS011;37372;52.294;5.152;2022-12-19T09:30:59;20.30;;;12.13;;
51288;SDS011;37372;52.294;5.152;2022-12-19T09:33:27;19.85;;;11.55;;
51288;SDS011;37372;52.294;5.152;2022-12-19T09:35:53;20.45;;;12.35;;
51288;SDS011;37372;52.294;5.152;2022-12-19T09:38:21;20.85;;;11.65;;
51288;SDS011;37372;52.294;5.152;2022-12-19T09:43:47;19.77;;;11.02;;
51288;SDS011;37372;52.294;5.152;2022-12-19T09:46:19;16.98;;;10.93;;
51288;SDS011;37372;52.294;5.152;2022-12-19T09:51:40;21.27;;;11.23;;
51288;SDS011;37372;52.294;5.152;2022-12-19T09:54:14;22.92;;;11.95;;
51288;SDS011;37372;52.294;5.152;2022-12-19T10:00:13;19.48;;;10.68;;
51288;SDS011;37372;52.294;5.152;2022-12-19T10:02:53;19.77;;;10.70;;
51288;SDS011;37372;52.294;5.152;2022-12-19T10:11:03;25.30;;;10.77;;
51288;SDS011;37372;52.294;5.152;2022-12-19T10:17:01;20.13;;;11.23;;
51288;SDS011;37372;52.294;5.152;2022-12-19T10:22:33;17.40;;;11.52;;
51288;SDS011;37372;52.294;5.152;2022-12-19T10:30:41;19.48;;;10.95;;
51288;SDS011;37372;52.294;5.152;2022-12-19T10:33:23;18.17;;;10.73;;
51288;SDS011;37372;52.294;5.152;2022-12-19T10:35:54;17.52;;;10.60;;
51288;SDS011;37372;52.294;5.152;2022-12-19T10:43:45;14.00;;;9.50;;
51288;SDS011;37372;52.294;5.152;2022-12-19T10:46:16;14.90;;;9.77;;
51288;SDS011;37372;52.294;5.152;2022-12-19T10:48:47;14.18;;;9.23;;
51288;SDS011;37372;52.294;5.152;2022-12-19T10:51:18;14.50;;;9.25;;
51288;SDS011;37372;52.294;5.152;2022-12-19T10:53:54;13.40;;;8.30;;
51288;SDS011;37372;52.294;5.152;2022-12-19T10:56:22;16.23;;;7.80;;
51288;SDS011;37372;52.294;5.152;2022-12-19T10:58:52;14.43;;;8.20;;
51288;SDS011;37372;52.294;5.152;2022-12-19T11:01:32;15.93;;;9.63;;
51288;SDS011;37372;52.294;5.152;2022-12-19T11:09:30;12.73;;;7.43;;
51288;SDS011;37372;52.294;5.152;2022-12-19T11:14:27;12.88;;;8.10;;
51288;SDS011;37372;52.294;5.152;2022-12-19T11:16:54;13.05;;;7.85;;
51288;SDS011;37372;52.294;5.152;2022-12-19T11:19:33;15.23;;;7.78;;
51288;SDS011;37372;52.294;5.152;2022-12-19T11:22:03;16.80;;;7.75;;
51288;SDS011;37372;52.294;5.152;2022-12-19T11:24:51;21.00;;;8.38;;
51288;SDS011;37372;52.294;5.152;2022-12-19T11:29:54;11.52;;;7.32;;
51288;SDS011;37372;52.294;5.152;2022-12-19T11:32:24;12.13;;;8.00;;
51288;SDS011;37372;52.294;5.152;2022-12-19T11:35:02;11.05;;;7.43;;
51288;SDS011;37372;52.294;5.152;2022-12-19T11:37:35;11.88;;;7.55;;
51288;SDS011;37372;52.294;5.152;2022-12-19T11:40:19;12.27;;;7.28;;
51288;SDS011;37372;52.294;5.152;2022-12-19T11:43:26;15.52;;;8.00;;
51288;SDS011;37372;52.294;5.152;2022-12-19T11:46:05;12.00;;;7.55;;
51288;SDS011;37372;52.294;5.152;2022-12-19T11:48:47;11.48;;;8.02;;
51288;SDS011;37372;52.294;5.152;2022-12-19T11:54:16;16.05;;;8.70;;
51288;SDS011;37372;52.294;5.152;2022-12-19T11:56:44;12.50;;;7.50;;
51288;SDS011;37372;52.294;5.152;2022-12-19T11:59:19;17.42;;;8.68;;
51288;SDS011;37372;52.294;5.152;2022-12-19T12:01:55;14.95;;;9.30;;
51288;SDS011;37372;52.294;5.152;2022-12-19T12:04:37;11.45;;;7.93;;
51288;SDS011;37372;52.294;5.152;2022-12-19T12:07:31;11.48;;;7.95;;
51288;SDS011;37372;52.294;5.152;2022-12-19T12:10:02;13.07;;;8.57;;
51288;SDS011;37372;52.294;5.152;2022-12-19T12:17:59;12.43;;;8.68;;
51288;SDS011;37372;52.294;5.152;2022-12-19T12:20:35;12.77;;;8.40;;
51288;SDS011;37372;52.294;5.152;2022-12-19T12:23:17;12.90;;;7.97;;
51288;SDS011;37372;52.294;5.152;2022-12-19T12:26:11;13.02;;;7.50;;
51288;SDS011;37372;52.294;5.152;2022-12-19T12:33:59;14.20;;;7.80;;
51288;SDS011;37372;52.294;5.152;2022-12-19T12:44:49;10.90;;;6.15;;
51288;SDS011;37372;52.294;5.152;2022-12-19T12:47:21;14.52;;;7.57;;
51288;SDS011;37372;52.294;5.152;2022-12-19T12:49:58;15.65;;;6.63;;
51288;SDS011;37372;52.294;5.152;2022-12-19T12:52:38;14.13;;;6.95;;
51288;SDS011;37372;52.294;5.152;2022-12-19T12:55:05;11.73;;;7.47;;
51288;SDS011;37372;52.294;5.152;2022-12-19T12:57:39;11.18;;;6.68;;
51288;SDS011;37372;52.294;5.152;2022-12-19T13:00:22;12.55;;;6.13;;
51288;SDS011;37372;52.294;5.152;2022-12-19T13:02:51;11.40;;;6.50;;
51288;SDS011;37372;52.294;5.152;2022-12-19T13:05:28;9.85;;;6.00;;
51288;SDS011;37372;52.294;5.152;2022-12-19T13:07:59;9.90;;;6.25;;
51288;SDS011;37372;52.294;5.152;2022-12-19T13:13:00;9.95;;;5.43;;
51288;SDS011;37372;52.294;5.152;2022-12-19T13:15:32;9.88;;;5.60;;
51288;SDS011;37372;52.294;5.152;2022-12-19T13:18:12;9.40;;;6.32;;
51288;SDS011;37372;52.294;5.152;2022-12-19T13:20:39;9.55;;;5.35;;
51288;SDS011;37372;52.294;5.152;2022-12-19T13:23:21;10.18;;;5.70;;
51288;SDS011;37372;52.294;5.152;2022-12-19T13:25:53;10.93;;;5.97;;
51288;SDS011;37372;52.294;5.152;2022-12-19T13:34:15;12.10;;;5.60;;
51288;SDS011;37372;52.294;5.152;2022-12-19T13:42:31;11.48;;;5.55;;
51288;SDS011;37372;52.294;5.152;2022-12-19T13:45:08;9.48;;;5.57;;
51288;SDS011;37372;52.294;5.152;2022-12-19T13:47:46;12.68;;;6.03;;
51288;SDS011;37372;52.294;5.152;2022-12-19T13:50:55;9.32;;;5.18;;
51288;SDS011;37372;52.294;5.152;2022-12-19T13:53:08;9.50;;;5.20;;
51288;SDS011;37372;52.294;5.152;2022-12-19T13:55:38;10.07;;;4.72;;
51288;SDS011;37372;52.294;5.152;2022-12-19T13:58:04;10.30;;;5.88;;
51288;SDS011;37372;52.294;5.152;2022-12-19T14:00:33;7.03;;;5.28;;
51288;SDS011;37372;52.294;5.152;2022-12-19T14:03:05;20.38;;;6.70;;
51288;SDS011;37372;52.294;5.152;2022-12-19T14:05:41;10.80;;;5.72;;
51288;SDS011;37372;52.294;5.152;2022-12-19T14:08:07;11.10;;;5.40;;
51288;SDS011;37372;52.294;5.152;2022-12-19T14:10:34;11.68;;;5.40;;
51288;SDS011;37372;52.294;5.152;2022-12-19T14:13:04;8.50;;;5.47;;
51288;SDS011;37372;52.294;5.152;2022-12-19T14:15:50;8.90;;;5.32;;
51288;SDS011;37372;52.294;5.152;2022-12-19T14:20:47;10.05;;;5.05;;
51288;SDS011;37372;52.294;5.152;2022-12-19T14:23:15;9.95;;;5.15;;
51288;SDS011;37372;52.294;5.152;2022-12-19T14:25:47;8.25;;;5.13;;
51288;SDS011;37372;52.294;5.152;2022-12-19T14:28:21;9.75;;;5.25;;
51288;SDS011;37372;52.294;5.152;2022-12-19T14:30:56;10.15;;;4.43;;
51288;SDS011;37372;52.294;5.152;2022-12-19T14:33:30;7.32;;;4.82;;
51288;SDS011;37372;52.294;5.152;2022-12-19T14:35:59;8.80;;;4.90;;
51288;SDS011;37372;52.294;5.152;2022-12-19T14:38:26;8.40;;;5.22;;
51288;SDS011;37372;52.294;5.152;2022-12-19T14:40:56;11.20;;;5.68;;
51288;SDS011;37372;52.294;5.152;2022-12-19T14:43:22;7.88;;;4.20;;
51288;SDS011;37372;52.294;5.152;2022-12-19T14:46:12;7.87;;;4.23;;
51288;SDS011;37372;52.294;5.152;2022-12-19T14:48:57;21.35;;;6.22;;
51288;SDS011;37372;52.294;5.152;2022-12-19T14:51:26;7.55;;;4.18;;
51288;SDS011;37372;52.294;5.152;2022-12-19T14:56:33;7.03;;;4.00;;
51288;SDS011;37372;52.294;5.152;2022-12-19T14:59:21;11.43;;;4.75;;
51288;SDS011;37372;52.294;5.152;2022-12-19T15:01:54;14.15;;;5.03;;
51288;SDS011;37372;52.294;5.152;2022-12-19T15:04:46;10.40;;;4.55;;
51288;SDS011;37372;52.294;5.152;2022-12-19T15:12:32;10.18;;;5.05;;
51288;SDS011;37372;52.294;5.152;2022-12-19T15:15:33;8.60;;;5.22;;
51288;SDS011;37372;52.294;5.152;2022-12-19T15:18:02;9.67;;;4.70;;
51288;SDS011;37372;52.294;5.152;2022-12-19T15:20:41;9.52;;;5.13;;
51288;SDS011;37372;52.294;5.152;2022-12-19T15:23:07;9.15;;;5.63;;
51288;SDS011;37372;52.294;5.152;2022-12-19T15:25:33;10.30;;;5.57;;
51288;SDS011;37372;52.294;5.152;2022-12-19T15:27:58;9.02;;;5.65;;
51288;SDS011;37372;52.294;5.152;2022-12-19T15:30:24;10.05;;;5.95;;
51288;SDS011;37372;52.294;5.152;2022-12-19T15:32:50;10.50;;;6.35;;
51288;SDS011;37372;52.294;5.152;2022-12-19T15:35:17;8.32;;;5.18;;
51288;SDS011;37372;52.294;5.152;2022-12-19T15:37:43;10.52;;;5.28;;
51288;SDS011;37372;52.294;5.152;2022-12-19T15:40:16;10.60;;;5.47;;
51288;SDS011;37372;52.294;5.152;2022-12-19T15:42:42;7.60;;;5.07;;
51288;SDS011;37372;52.294;5.152;2022-12-19T15:45:13;8.90;;;5.22;;
51288;SDS011;37372;52.294;5.152;2022-12-19T15:47:40;7.18;;;4.75;;
51288;SDS011;37372;52.294;5.152;2022-12-19T15:50:15;9.40;;;4.93;;
51288;SDS011;37372;52.294;5.152;2022-12-19T15:52:48;8.55;;;4.63;;
51288;SDS011;37372;52.294;5.152;2022-12-19T15:55:24;11.13;;;5.50;;
51288;SDS011;37372;52.294;5.152;2022-12-19T15:57:58;9.75;;;5.32;;
51288;SDS011;37372;52.294;5.152;2022-12-19T16:00:27;7.45;;;4.35;;
51288;SDS011;37372;52.294;5.152;2022-12-19T16:02:56;14.25;;;6.13;;
51288;SDS011;37372;52.294;5.152;2022-12-19T16:05:22;8.20;;;5.57;;
51288;SDS011;37372;52.294;5.152;2022-12-19T16:07:48;11.07;;;4.28;;
51288;SDS011;37372;52.294;5.152;2022-12-19T16:10:15;9.43;;;4.82;;
51288;SDS011;37372;52.294;5.152;2022-12-19T16:12:58;8.32;;;4.90;;
51288;SDS011;37372;52.294;5.152;2022-12-19T16:15:26;10.23;;;5.27;;
51288;SDS011;37372;52.294;5.152;2022-12-19T16:17:54;11.15;;;5.13;;
51288;SDS011;37372;52.294;5.152;2022-12-19T16:20:22;9.18;;;4.63;;
51288;SDS011;37372;52.294;5.152;2022-12-19T16:22:50;9.57;;;4.43;;
51288;SDS011;37372;52.294;5.152;2022-12-19T16:25:16;8.32;;;4.85;;
51288;SDS011;37372;52.294;5.152;2022-12-19T16:27:43;7.22;;;4.20;;
51288;SDS011;37372;52.294;5.152;2022-12-19T16:32:43;12.13;;;4.85;;
51288;SDS011;37372;52.294;5.152;2022-12-19T16:35:12;6.97;;;3.95;;
51288;SDS011;37372;52.294;5.152;2022-12-19T16:37:39;7.93;;;4.15;;
51288;SDS011;37372;52.294;5.152;2022-12-19T16:40:05;7.30;;;4.68;;
51288;SDS011;37372;52.294;5.152;2022-12-19T16:42:31;8.07;;;4.13;;
51288;SDS011;37372;52.294;5.152;2022-12-19T16:44:57;7.90;;;4.25;;
51288;SDS011;37372;52.294;5.152;2022-12-19T16:47:23;7.43;;;4.38;;
51288;SDS011;37372;52.294;5.152;2022-12-19T16:49:48;8.98;;;5.07;;
51288;SDS011;37372;52.294;5.152;2022-12-19T16:52:13;10.02;;;5.25;;
51288;SDS011;37372;52.294;5.152;2022-12-19T16:54:39;9.32;;;5.22;;
51288;SDS011;37372;52.294;5.152;2022-12-19T16:57:04;9.27;;;4.78;;
51288;SDS011;37372;52.294;5.152;2022-12-19T16:59:40;6.43;;;4.00;;
51288;SDS011;37372;52.294;5.152;2022-12-19T17:05:14;9.27;;;4.40;;